• Join FlightAware (Why Join?)
  • Login
  • US Flag 
08:32PM EDT


 

Airport Tracker/Info


-or-


 

Live Flight TrackerFlight Track Log ✈ N865JM ✈ 15-Oct-2013 ✈ KTMB - KTEB

Flight Track Log - Related Links

Times and Time Zones

All times are in EDT time to prevent confusion due to time zone crossing. See the N865JM flight status page for this flight to view local times or setup timezone preferences in your user account.

Time Position Orientation Groundspeed Altitude Reporting Facility
EDT Latitude Longitude Course Direction KTS MPH feet Rate Location/Type
02:03PM 26.6761 -80.0650 18° North 78 90 1,500  Level Miami Center
02:05PM 26.8414 -80.0056 18° North  Level Estimated
02:12PM 27.5284 -79.7567 18° North  Level Estimated
02:13PM 27.6265 -79.7209 18° North  Level Estimated
02:14PM 27.7246 -79.6850 18° North  Level Estimated
02:15PM 27.8227 -79.6490 18° North  Level Estimated
02:16PM 27.9208 -79.6130 18° North  Level Estimated
02:17PM 28.0189 -79.5770 18° North  Level Estimated
02:18PM 28.1170 -79.5408 18° North  Level Estimated
02:19PM 28.2150 -79.5046 18° North  Level Estimated
02:20PM 28.3131 -79.4684 18° North  Level Estimated
02:21PM 28.4111 -79.4320 18° North  Level Estimated
02:22PM 28.5091 -79.3956 18° North  Level Estimated
02:23PM 28.6072 -79.3591 18° North  Level Estimated
02:24PM 28.7052 -79.3226 18° North  Level Estimated
02:25PM 28.8032 -79.2860 18° North  Level Estimated
02:26PM 28.9012 -79.2493 18° North  Level Estimated
02:27PM 28.9991 -79.2125 18° North  Level Estimated
02:28PM 29.0971 -79.1757 18° North  Level Estimated
02:29PM 29.1951 -79.1388 18° North  Level Estimated
02:30PM 29.2930 -79.1019 18° North  Level Estimated
02:31PM 29.3910 -79.0648 18° North  Level Estimated
02:32PM 29.4889 -79.0277 18° North  Level Estimated
02:33PM 29.5868 -78.9906 18° North  Level Estimated
02:34PM 29.6847 -78.9533 18° North  Level Estimated
02:35PM 29.7826 -78.9160 18° North  Level Estimated
02:36PM 29.8805 -78.8786 18° North  Level Estimated
02:37PM 29.9784 -78.8412 18° North  Level Estimated
02:38PM 30.0763 -78.8036 18° North  Level Estimated
02:39PM 30.1741 -78.7660 18° North  Level Estimated
02:40PM 30.2719 -78.7283 18° North  Level Estimated
02:41PM 30.3698 -78.6906 18° North  Level Estimated
02:42PM 30.4676 -78.6527 18° North  Level Estimated
02:43PM 30.5654 -78.6148 18° North  Level Estimated
02:44PM 30.6632 -78.5768 18° North  Level Estimated
02:45PM 30.7610 -78.5388 18° North  Level Estimated
02:46PM 30.8588 -78.5006 19° North  Level Estimated
02:47PM 30.9565 -78.4624 19° North  Level Estimated
02:48PM 31.0543 -78.4241 19° North  Level Estimated
02:49PM 31.1520 -78.3857 19° North  Level Estimated
02:50PM 31.2498 -78.3473 19° North  Level Estimated
02:51PM 31.3475 -78.3087 19° North  Level Estimated
02:52PM 31.4452 -78.2701 19° North  Level Estimated
02:53PM 31.5429 -78.2314 19° North  Level Estimated
02:54PM 31.6406 -78.1926 19° North  Level Estimated
02:55PM 31.7383 -78.1538 19° North  Level Estimated
02:56PM 31.8359 -78.1148 19° North  Level Estimated
02:57PM 31.9336 -78.0758 19° North  Level Estimated
02:58PM 32.0312 -78.0367 19° North  Level Estimated
02:59PM 32.1288 -77.9975 19° North  Level Estimated
03:00PM 32.2264 -77.9582 19° North  Level Estimated
03:01PM 32.3240 -77.9189 19° North  Level Estimated
03:02PM 32.4216 -77.8794 19° North  Level Estimated
03:03PM 32.5192 -77.8399 19° North  Level Estimated
03:04PM 32.6168 -77.8002 19° North  Level Estimated
03:05PM 32.7143 -77.7606 19° North  Level Estimated
03:06PM 32.8119 -77.7208 19° North  Level Estimated
03:07PM 32.9094 -77.6809 19° North  Level Estimated
03:08PM 33.0069 -77.6409 19° North  Level Estimated
03:09PM 33.1044 -77.6009 19° North  Level Estimated
03:10PM 33.2019 -77.5607 19° North  Level Estimated
03:11PM 33.2994 -77.5205 19° North  Level Estimated
03:12PM 33.3968 -77.4802 19° North  Level Estimated
03:13PM 33.4943 -77.4398 19° North  Level Estimated
03:14PM 33.5917 -77.3993 19° North  Level Estimated
03:15PM 33.6892 -77.3587 19° North  Level Estimated
03:16PM 33.7866 -77.3180 19° North  Level Estimated
03:17PM 33.8840 -77.2772 19° North  Level Estimated
03:18PM 33.9813 -77.2363 19° North  Level Estimated
03:19PM 34.0787 -77.1954 19° North  Level Estimated
03:20PM 34.1761 -77.1543 19° North  Level Estimated
03:21PM 34.2734 -77.1131 19° North  Level Estimated
03:22PM 34.3707 -77.0719 19° North  Level Estimated
03:23PM 34.4681 -77.0305 19° North  Level Estimated
03:24PM 34.5654 -76.9891 19° North  Level Estimated
03:25PM 34.6627 -76.9475 19° North  Level Estimated
03:26PM 34.7599 -76.9059 19° North  Level Estimated
03:27PM 34.8572 -76.8642 19° North  Level Estimated
03:28PM 34.9544 -76.8223 19° North  Level Estimated
03:29PM 35.0517 -76.7804 19° North  Level Estimated
03:30PM 35.1489 -76.7383 19° North  Level Estimated
03:31PM 35.2461 -76.6962 19° North  Level Estimated
03:32PM 35.3433 -76.6540 20° North  Level Estimated
03:33PM 35.4404 -76.6116 20° North  Level Estimated
03:34PM 35.5376 -76.5692 20° North  Level Estimated
03:35PM 35.6347 -76.5266 20° North  Level Estimated
03:36PM 35.7319 -76.4840 20° North  Level Estimated
03:37PM 35.8290 -76.4412 20° North  Level Estimated
03:38PM 35.9261 -76.3984 20° North  Level Estimated
03:39PM 36.0232 -76.3554 20° North  Level Estimated
03:40PM 36.1202 -76.3123 20° North  Level Estimated
03:41PM 36.2173 -76.2692 20° North  Level Estimated
03:42PM 36.3143 -76.2259 20° North  Level Estimated
03:43PM 36.4113 -76.1825 20° North  Level Estimated
03:44PM 36.5083 -76.1390 20° North  Level Estimated
03:45PM 36.6053 -76.0954 20° North  Level Estimated
03:46PM 36.7023 -76.0517 20° North  Level Estimated
03:47PM 36.7993 -76.0078 20° North  Level Estimated
03:48PM 36.8962 -75.9639 20° North  Level Estimated
03:49PM 36.9931 -75.9198 20° North  Level Estimated
03:50PM 37.0900 -75.8757 20° North  Level Estimated
03:51PM 37.1869 -75.8314 20° North  Level Estimated
03:52PM 37.2838 -75.7870 20° North  Level Estimated
03:53PM 37.3806 -75.7425 20° North  Level Estimated
03:54PM 37.4775 -75.6979 20° North  Level Estimated
03:55PM 37.5743 -75.6532 20° North  Level Estimated
03:56PM 37.6711 -75.6083 20° North  Level Estimated
03:57PM 37.7679 -75.5633 20° North  Level Estimated
03:58PM 37.8647 -75.5182 20° North  Level Estimated
03:59PM 37.9614 -75.4730 20° North  Level Estimated
04:00PM 38.0582 -75.4277 20° North  Level Estimated
04:01PM 38.1549 -75.3823 20° North  Level Estimated
04:02PM 38.2516 -75.3367 20° North  Level Estimated
04:03PM 38.3483 -75.2910 20° North  Level Estimated
04:04PM 38.4450 -75.2452 20° North  Level Estimated
04:05PM 38.5416 -75.1993 20° North  Level Estimated
04:06PM 38.6382 -75.1532 20° North  Level Estimated
04:07PM 38.7348 -75.1070 20° North  Level Estimated
04:08PM 38.8314 -75.0607 20° North  Level Estimated
04:09PM 38.9280 -75.0143 21° North  Level Estimated
04:10PM 39.0246 -74.9677 21° North  Level Estimated
04:11PM 39.1211 -74.9211 21° North  Level Estimated
04:12PM 39.2176 -74.8743 21° North  Level Estimated
04:13PM 39.3141 -74.8273 21° North  Level Estimated
04:14PM 39.4106 -74.7802 21° North  Level Estimated
04:15PM 39.5071 -74.7330 21° North  Level Estimated
04:16PM 39.6035 -74.6857 21° North  Level Estimated
04:17PM 39.7000 -74.6382 21° North  Level Estimated
04:18PM 39.7964 -74.5906 21° North  Level Estimated
04:19PM 39.8928 -74.5429 21° North  Level Estimated
04:20PM 39.9891 -74.4950 21° North  Level Estimated
04:21PM 40.0855 -74.4470 21° North  Level Estimated
04:22PM 40.1818 -74.3989 21° North  Level Estimated
04:23PM 40.2781 -74.3506 21° North  Level Estimated
04:24PM 40.3744 -74.3022 21° North  Level Estimated
04:25PM 40.4707 -74.2537 21° North  Level Estimated
04:26PM 40.5669 -74.2050 21° North  Level Estimated
04:27PM 40.6632 -74.1561 21° North  Level Estimated
04:28PM 40.7594 -74.1072 21° North  Level Estimated
04:29PM 40.8501 -74.0608 21° North  Level Estimated
04:30PM 40.8501 -74.0608 294° West  Level Estimated
04:31PM 40.8501 -74.0608 294° West  Level Estimated
04:32PM 40.8501 -74.0608 294° West  Level Estimated
04:33PM 40.8501 -74.0608 294° West  Level Estimated
04:34PM 40.8501 -74.0608 294° West  Level Estimated
04:35PM 40.8501 -74.0608 294° West  Level Estimated
04:36PM 40.8501 -74.0608 294° West  Level Estimated
04:37PM 40.8501 -74.0608 294° West  Level Estimated
04:38PM 40.8501 -74.0608 294° West  Level Estimated
04:39PM 40.8501 -74.0608 294° West  Level Estimated
04:40PM 40.8501 -74.0608 294° West  Level Estimated
04:41PM 40.8501 -74.0608 294° West  Level Estimated
04:42PM 40.8501 -74.0608 294° West  Level Estimated
04:43PM 40.8501 -74.0608 294° West  Level Estimated
04:44PM 40.8501 -74.0608 294° West  Level Estimated
04:45PM 40.8501 -74.0608 294° West  Level Estimated
04:46PM 40.8501 -74.0608 294° West  Level Estimated
04:47PM 40.8501 -74.0608 294° West  Level Estimated
04:48PM 40.8501 -74.0608 294° West  Level Estimated
04:49PM 40.8501 -74.0608 294° West  Level Estimated
04:50PM 40.8501 -74.0608 294° West  Level Estimated
04:51PM 40.8501 -74.0608 294° West  Level Estimated
04:52PM 40.8501 -74.0608 294° West  Level Estimated
04:53PM 40.8501 -74.0608 294° West  Level Estimated
04:54PM 40.8501 -74.0608 294° West  Level Estimated
04:55PM 40.8501 -74.0608 294° West  Level Estimated
04:56PM 40.8501 -74.0608 294° West  Level Estimated
04:57PM 40.8501 -74.0608 294° West  Level Estimated
04:58PM 40.8501 -74.0608 294° West  Level Estimated
04:59PM 40.8501 -74.0608 294° West  Level Estimated
05:00PM 40.8501 -74.0608 294° West  Level Estimated
05:01PM 40.8501 -74.0608 294° West  Level Estimated
05:02PM 40.8501 -74.0608 294° West  Level Estimated
05:03PM 40.8501 -74.0608 294° West  Level Estimated
05:04PM 40.8501 -74.0608 294° West  Level Estimated
05:05PM 40.8501 -74.0608 294° West  Level Estimated